Time;durP1;ratioP1;P1;durP2;ratioP2;P2;SDS_P1;SDS_P2;PMS_P1;PMS_P2;Temp;Humidity;BMP_temperature;BMP_pressure;BME280_temperature;BME280_humidity;BME280_pressure;Samples;Min_cycle;Max_cycle;Signal;HPM_P1;HPM_P2
2020/12/18 00:00:32;;;;;;;25.27;12.83;;;8.10;99.90;;;;;;4997717;28;20539;-74
2020/12/18 00:02:59;;;;;;;22.97;14.03;;;8.10;99.90;;;;;;4998077;28;20520;-74
2020/12/18 00:05:25;;;;;;;22.70;11.50;;;8.10;99.90;;;;;;4998038;28;20572;-73
2020/12/18 00:07:52;;;;;;;17.47;11.53;;;8.00;99.90;;;;;;4990612;28;20521;-74
2020/12/18 00:10:18;;;;;;;19.23;12.50;;;8.00;99.90;;;;;;4982882;28;20522;-73
2020/12/18 00:12:45;;;;;;;22.37;11.73;;;8.00;99.90;;;;;;4979242;28;20442;-73
2020/12/18 00:15:11;;;;;;;17.10;11.07;;;8.00;99.90;;;;;;4980245;28;20526;-74
2020/12/18 00:17:38;;;;;;;15.23;11.17;;;8.00;99.90;;;;;;4988099;28;20822;-75
2020/12/18 00:20:06;;;;;;;15.20;10.97;;;8.00;99.90;;;;;;4989179;28;20482;-74
2020/12/18 00:22:33;;;;;;;17.63;11.13;;;8.00;99.90;;;;;;4987385;28;20573;-75
2020/12/18 00:24:59;;;;;;;16.77;10.07;;;8.00;99.90;;;;;;4987967;28;20481;-74
2020/12/18 00:27:26;;;;;;;19.60;11.17;;;8.00;99.90;;;;;;4988340;28;20898;-72
2020/12/18 00:29:52;;;;;;;13.57;10.20;;;7.90;99.90;;;;;;4989357;28;20431;-74
2020/12/18 00:32:19;;;;;;;16.10;10.37;;;7.90;99.90;;;;;;4986284;28;20545;-74
2020/12/18 00:34:45;;;;;;;13.87;10.70;;;7.80;99.90;;;;;;4989121;28;20439;-75
2020/12/18 00:37:14;;;;;;;15.03;10.43;;;7.80;99.90;;;;;;4989953;28;20841;-75
2020/12/18 00:39:41;;;;;;;18.57;12.03;;;7.80;99.90;;;;;;4988058;28;20456;-74
2020/12/18 00:42:07;;;;;;;15.80;10.20;;;7.80;99.90;;;;;;4992476;28;20458;-75
2020/12/18 00:44:34;;;;;;;12.63;9.07;;;7.70;99.90;;;;;;4991306;28;20542;-75
2020/12/18 00:47:00;;;;;;;14.70;11.50;;;7.70;99.90;;;;;;4989969;28;20470;-74
2020/12/18 00:49:26;;;;;;;17.30;10.70;;;7.60;99.90;;;;;;4991771;28;20450;-75
2020/12/18 00:51:53;;;;;;;17.13;10.30;;;7.60;99.90;;;;;;4995208;28;20450;-74
2020/12/18 00:54:20;;;;;;;15.20;9.77;;;7.60;99.90;;;;;;5005182;28;20439;-74
2020/12/18 00:56:47;;;;;;;15.97;9.83;;;7.50;99.90;;;;;;5006599;28;20442;-74
2020/12/18 00:59:13;;;;;;;18.23;10.13;;;7.50;99.90;;;;;;5003971;28;20470;-74
2020/12/18 01:01:40;;;;;;;17.87;10.60;;;7.50;99.90;;;;;;4994610;28;20513;-75
2020/12/18 01:04:06;;;;;;;19.30;11.27;;;7.40;99.90;;;;;;4985014;28;20493;-75
2020/12/18 01:06:33;;;;;;;16.03;10.97;;;7.40;99.90;;;;;;4984564;28;20590;-74
2020/12/18 01:08:59;;;;;;;17.03;10.40;;;7.40;99.90;;;;;;4983302;28;20512;-74
2020/12/18 01:11:27;;;;;;;14.70;8.90;;;7.40;99.90;;;;;;4987332;28;20458;-73
2020/12/18 01:13:53;;;;;;;19.50;11.23;;;7.40;99.90;;;;;;4982827;28;20443;-75
2020/12/18 01:16:20;;;;;;;14.67;10.87;;;7.40;99.90;;;;;;4985808;28;20458;-73
2020/12/18 01:18:46;;;;;;;14.20;9.47;;;7.40;99.90;;;;;;4984297;28;20470;-74
2020/12/18 01:21:13;;;;;;;18.27;10.53;;;7.40;99.90;;;;;;4984918;28;20455;-75
2020/12/18 01:23:42;;;;;;;14.20;10.10;;;7.50;99.90;;;;;;4985410;28;20890;-75
2020/12/18 01:26:08;;;;;;;13.53;9.77;;;7.50;99.90;;;;;;4986035;28;20923;-75
2020/12/18 01:28:36;;;;;;;15.97;11.60;;;7.50;99.90;;;;;;4982828;28;20517;-75
2020/12/18 01:31:02;;;;;;;17.13;10.77;;;7.60;99.90;;;;;;4985265;28;20537;-75
2020/12/18 01:33:28;;;;;;;17.20;10.30;;;7.70;99.90;;;;;;4994512;28;20458;-75
2020/12/18 01:35:55;;;;;;;18.97;10.30;;;7.60;99.90;;;;;;4987700;28;20518;-74
2020/12/18 01:38:21;;;;;;;18.17;10.27;;;7.60;99.90;;;;;;4986698;28;20530;-74
2020/12/18 01:40:47;;;;;;;18.87;10.20;;;7.60;99.90;;;;;;4984417;28;20537;-74
2020/12/18 01:43:14;;;;;;;16.60;10.23;;;7.70;99.90;;;;;;4986974;28;20444;-74
2020/12/18 01:45:41;;;;;;;12.63;9.07;;;7.70;99.90;;;;;;4987193;28;20552;-74
2020/12/18 01:48:08;;;;;;;16.37;10.77;;;7.70;99.90;;;;;;4984346;28;20470;-75
2020/12/18 01:50:34;;;;;;;18.00;10.63;;;7.70;99.90;;;;;;4984526;28;20526;-73
2020/12/18 01:53:01;;;;;;;19.50;9.47;;;7.70;99.90;;;;;;4985542;28;20532;-75
2020/12/18 01:55:31;;;;;;;14.10;9.70;;;7.70;99.90;;;;;;4987335;28;20540;-74
2020/12/18 01:57:58;;;;;;;16.10;9.73;;;7.70;99.90;;;;;;4984372;28;20520;-75
2020/12/18 02:00:26;;;;;;;17.37;11.10;;;7.70;99.90;;;;;;4987923;28;20531;-74
2020/12/18 02:02:55;;;;;;;15.50;9.50;;;7.70;99.90;;;;;;4988420;28;20920;-74
2020/12/18 02:05:21;;;;;;;15.73;10.13;;;7.70;99.90;;;;;;4985941;28;20562;-75
2020/12/18 02:08:00;;;;;;;17.00;10.63;;;7.70;99.90;;;;;;4988157;28;20513;-74
2020/12/18 02:10:27;;;;;;;15.20;10.50;;;7.70;99.90;;;;;;4989019;28;20777;-74
2020/12/18 02:12:54;;;;;;;18.33;10.27;;;7.80;99.90;;;;;;4994258;28;20525;-74
2020/12/18 02:15:21;;;;;;;12.67;9.40;;;7.70;99.90;;;;;;4996894;28;20484;-74
2020/12/18 02:17:49;;;;;;;15.97;10.37;;;7.70;99.90;;;;;;4996577;28;20509;-75
2020/12/18 02:20:16;;;;;;;16.63;10.03;;;7.70;99.90;;;;;;4996679;28;20536;-74
2020/12/18 02:22:42;;;;;;;17.73;10.83;;;7.60;99.90;;;;;;4996487;28;20477;-74
2020/12/18 02:25:11;;;;;;;21.00;10.50;;;7.60;99.90;;;;;;4996487;28;20875;-74
2020/12/18 02:27:39;;;;;;;23.63;9.40;;;7.60;99.90;;;;;;4997719;28;20533;-75
2020/12/18 02:30:07;;;;;;;17.90;10.97;;;7.60;99.90;;;;;;4996472;28;20470;-74
2020/12/18 02:32:33;;;;;;;26.40;13.73;;;7.50;99.90;;;;;;4996876;28;20561;-74
2020/12/18 02:35:00;;;;;;;18.63;11.37;;;7.50;99.90;;;;;;4996282;28;20450;-75
2020/12/18 02:37:26;;;;;;;20.60;11.03;;;7.50;99.90;;;;;;4994778;28;20450;-75
2020/12/18 02:39:57;;;;;;;17.23;11.23;;;7.50;99.90;;;;;;4998500;28;20992;-75
2020/12/18 02:42:23;;;;;;;21.77;10.80;;;7.50;99.90;;;;;;4998255;28;20462;-74
2020/12/18 02:44:50;;;;;;;16.90;11.10;;;7.50;99.90;;;;;;4999833;28;20438;-75
2020/12/18 02:47:17;;;;;;;14.67;10.67;;;7.50;99.90;;;;;;4999228;28;20561;-75
2020/12/18 02:49:43;;;;;;;16.27;10.40;;;7.40;99.90;;;;;;5000666;28;20461;-73
2020/12/18 02:52:10;;;;;;;20.17;10.40;;;7.40;99.90;;;;;;4985450;28;20545;-76
2020/12/18 02:54:36;;;;;;;18.33;10.60;;;7.40;99.90;;;;;;4979019;28;20447;-74
2020/12/18 02:57:03;;;;;;;18.97;10.13;;;7.40;99.90;;;;;;4980006;28;20439;-75
2020/12/18 02:59:30;;;;;;;17.17;10.27;;;7.40;99.90;;;;;;4979996;28;20538;-75
2020/12/18 03:01:57;;;;;;;16.03;10.90;;;7.30;99.90;;;;;;4980386;28;20454;-75
2020/12/18 03:04:23;;;;;;;18.60;11.67;;;7.30;99.90;;;;;;4980268;28;20466;-74
2020/12/18 03:06:50;;;;;;;23.73;9.90;;;7.30;99.90;;;;;;4982416;28;20554;-74
2020/12/18 03:09:16;;;;;;;16.93;10.50;;;7.20;99.90;;;;;;4992175;28;20471;-73
2020/12/18 03:11:43;;;;;;;20.03;10.17;;;7.20;99.90;;;;;;4999625;28;20455;-75
2020/12/18 03:14:09;;;;;;;15.47;9.07;;;7.30;99.90;;;;;;5001460;28;20419;-74
2020/12/18 03:16:39;;;;;;;15.97;10.63;;;7.30;99.90;;;;;;4994521;28;20426;-74
2020/12/18 03:19:07;;;;;;;16.13;10.00;;;7.20;99.90;;;;;;4983409;28;20494;-75
2020/12/18 03:21:33;;;;;;;17.20;10.10;;;7.20;99.90;;;;;;4980761;28;20478;-74
2020/12/18 03:23:59;;;;;;;17.50;11.83;;;7.20;99.90;;;;;;4979960;28;20453;-74
2020/12/18 03:26:26;;;;;;;18.13;12.00;;;7.20;99.90;;;;;;4979540;28;20613;-74
2020/12/18 03:28:52;;;;;;;17.13;11.33;;;7.20;99.90;;;;;;4979444;28;20527;-75
2020/12/18 03:31:19;;;;;;;21.50;11.37;;;7.10;99.90;;;;;;4979653;28;20513;-73
2020/12/18 03:33:46;;;;;;;16.70;11.03;;;7.10;99.90;;;;;;4979790;28;20471;-74
2020/12/18 03:36:13;;;;;;;16.40;10.00;;;7.00;99.90;;;;;;4979466;28;20451;-74
2020/12/18 03:38:39;;;;;;;18.50;11.90;;;7.00;99.90;;;;;;4980576;28;20533;-74
2020/12/18 03:41:07;;;;;;;18.13;11.20;;;7.00;99.90;;;;;;4982480;28;20509;-74
2020/12/18 03:43:33;;;;;;;17.40;11.30;;;7.00;99.90;;;;;;5006329;23;20592;-74
2020/12/18 03:46:07;;;;;;;19.63;11.77;;;7.10;99.90;;;;;;5005986;23;20517;-76
2020/12/18 03:48:34;;;;;;;13.80;10.27;;;7.10;99.90;;;;;;4999232;28;20521;-75
2020/12/18 03:51:00;;;;;;;21.57;11.77;;;7.00;99.90;;;;;;4998012;28;20434;-75
2020/12/18 03:53:27;;;;;;;20.60;11.37;;;7.00;99.90;;;;;;4998360;28;20576;-75
2020/12/18 03:55:54;;;;;;;15.40;10.27;;;7.10;99.90;;;;;;4997525;28;20545;-74
2020/12/18 03:58:20;;;;;;;21.63;12.30;;;7.00;99.90;;;;;;4998268;28;20482;-74
2020/12/18 04:00:46;;;;;;;16.13;9.37;;;7.00;99.90;;;;;;4998621;28;20437;-75
2020/12/18 04:03:13;;;;;;;18.70;10.73;;;6.90;99.90;;;;;;4998531;28;20474;-75
2020/12/18 04:05:39;;;;;;;19.43;12.07;;;6.90;99.90;;;;;;4998313;28;20573;-75
2020/12/18 04:08:06;;;;;;;17.97;11.47;;;6.90;99.90;;;;;;5004314;28;20904;-75
2020/12/18 04:10:33;;;;;;;16.30;9.97;;;7.00;99.90;;;;;;4997625;28;20442;-75
2020/12/18 04:13:00;;;;;;;14.77;9.90;;;7.00;99.90;;;;;;4997590;28;20482;-75
2020/12/18 04:15:26;;;;;;;18.03;11.20;;;7.00;99.90;;;;;;4997588;28;20513;-75
2020/12/18 04:17:53;;;;;;;15.73;10.93;;;7.00;99.90;;;;;;4998021;28;20541;-74
2020/12/18 04:20:19;;;;;;;16.00;9.60;;;7.00;99.90;;;;;;4997942;28;20450;-75
2020/12/18 04:22:46;;;;;;;16.13;10.17;;;7.10;99.90;;;;;;4997358;28;20529;-74
2020/12/18 04:25:12;;;;;;;15.20;10.00;;;7.10;99.90;;;;;;4997427;28;20493;-74
2020/12/18 04:27:39;;;;;;;15.43;10.10;;;7.00;99.90;;;;;;4997448;28;20903;-76
2020/12/18 04:30:06;;;;;;;18.30;10.13;;;7.00;99.90;;;;;;4997632;28;20537;-75
2020/12/18 04:32:32;;;;;;;14.43;9.57;;;7.00;99.90;;;;;;4997915;28;20501;-75
2020/12/18 04:35:00;;;;;;;14.80;10.00;;;7.00;99.90;;;;;;4999001;28;20461;-75
2020/12/18 04:37:26;;;;;;;16.17;11.20;;;7.10;99.90;;;;;;4997804;28;20445;-75
2020/12/18 04:39:52;;;;;;;18.37;10.63;;;7.10;99.90;;;;;;4997289;28;20458;-75
2020/12/18 04:42:19;;;;;;;16.50;10.23;;;7.10;99.90;;;;;;4998007;28;20834;-75
2020/12/18 04:44:47;;;;;;;20.93;10.87;;;7.10;99.90;;;;;;4997688;28;20509;-75
2020/12/18 04:47:14;;;;;;;20.50;12.20;;;7.10;99.90;;;;;;4997450;28;20517;-75
2020/12/18 04:49:42;;;;;;;14.20;9.80;;;7.10;99.90;;;;;;4997457;28;20484;-76
2020/12/18 04:52:10;;;;;;;14.63;10.67;;;7.20;99.90;;;;;;4997752;28;20446;-74
2020/12/18 04:54:41;;;;;;;18.60;11.50;;;7.20;99.90;;;;;;4997708;28;20536;-75
2020/12/18 04:57:08;;;;;;;16.53;11.03;;;7.10;99.90;;;;;;4997956;28;20468;-75
2020/12/18 04:59:35;;;;;;;20.40;10.37;;;7.10;99.90;;;;;;4998558;28;20446;-74
2020/12/18 05:02:02;;;;;;;13.23;8.50;;;7.10;99.90;;;;;;4997997;28;20466;-75
2020/12/18 05:04:29;;;;;;;17.90;10.00;;;7.10;99.90;;;;;;4997739;28;20549;-73
2020/12/18 05:06:55;;;;;;;14.60;9.70;;;7.20;99.90;;;;;;4997448;28;20513;-74
2020/12/18 05:09:24;;;;;;;14.33;9.73;;;7.20;99.90;;;;;;4999067;28;20446;-74
2020/12/18 05:11:52;;;;;;;21.57;10.80;;;7.20;99.90;;;;;;4998700;28;20542;-74
2020/12/18 05:14:27;;;;;;;16.10;10.40;;;7.20;99.90;;;;;;4999046;28;20454;-75
2020/12/18 05:16:54;;;;;;;19.33;10.67;;;7.20;99.90;;;;;;4997924;28;20517;-74
2020/12/18 05:19:22;;;;;;;19.63;10.37;;;7.10;99.90;;;;;;5000486;28;20504;-75
2020/12/18 05:21:50;;;;;;;15.10;10.70;;;7.10;99.90;;;;;;4979704;28;20791;-75
2020/12/18 05:24:19;;;;;;;16.60;11.57;;;7.10;99.90;;;;;;4977616;28;20466;-74
2020/12/18 05:26:46;;;;;;;14.33;9.90;;;7.10;99.90;;;;;;4980073;28;20606;-74
2020/12/18 05:29:12;;;;;;;18.00;10.23;;;7.20;99.90;;;;;;4986102;28;20523;-75
2020/12/18 05:31:39;;;;;;;20.10;12.70;;;7.10;99.90;;;;;;4998934;28;20439;-73
2020/12/18 05:34:05;;;;;;;19.73;10.77;;;7.10;99.90;;;;;;4998010;28;20451;-74
2020/12/18 05:36:33;;;;;;;17.60;10.53;;;7.10;99.90;;;;;;4997900;28;20423;-74
2020/12/18 05:39:00;;;;;;;17.70;11.67;;;7.10;99.90;;;;;;4980508;28;20992;-75
2020/12/18 05:41:27;;;;;;;17.27;10.60;;;7.10;99.90;;;;;;4977499;28;20467;-73
2020/12/18 05:43:54;;;;;;;19.60;10.93;;;7.00;99.90;;;;;;4979410;28;20542;-75
2020/12/18 05:46:22;;;;;;;21.00;11.77;;;7.00;99.90;;;;;;4979043;28;20525;-75
2020/12/18 05:48:58;;;;;;;18.60;13.50;;;7.00;99.90;;;;;;4977551;28;21016;-75
2020/12/18 05:51:33;;;;;;;16.27;11.57;;;7.00;99.90;;;;;;4977895;28;20478;-74
2020/12/18 05:54:11;;;;;;;20.20;12.13;;;7.00;99.90;;;;;;4977358;28;20771;-75
2020/12/18 05:56:38;;;;;;;17.83;12.03;;;7.10;99.90;;;;;;4977647;28;20439;-72
2020/12/18 05:59:09;;;;;;;19.43;12.90;;;7.10;99.90;;;;;;4977306;28;20447;-75
2020/12/18 06:01:39;;;;;;;20.17;12.10;;;7.10;99.90;;;;;;4977635;28;20839;-74
2020/12/18 06:04:14;;;;;;;24.17;13.87;;;7.10;99.90;;;;;;4977910;28;20443;-75
2020/12/18 06:06:47;;;;;;;18.10;12.30;;;7.10;99.90;;;;;;4977881;28;20508;-75
2020/12/18 06:09:15;;;;;;;27.30;14.07;;;7.10;99.90;;;;;;4977866;28;20530;-75
2020/12/18 06:11:41;;;;;;;19.37;11.93;;;7.10;99.90;;;;;;4981877;28;20494;-74
2020/12/18 06:14:10;;;;;;;17.50;12.40;;;7.10;99.90;;;;;;4981457;28;20451;-74
2020/12/18 06:16:43;;;;;;;23.40;14.17;;;7.10;99.90;;;;;;4981275;28;20455;-74
2020/12/18 06:19:10;;;;;;;18.73;12.10;;;7.00;99.90;;;;;;4981211;28;20585;-74
2020/12/18 06:21:37;;;;;;;14.63;10.90;;;6.90;99.90;;;;;;4980802;28;20478;-75
2020/12/18 06:24:04;;;;;;;17.57;11.90;;;6.90;99.90;;;;;;4981740;28;20545;-74
2020/12/18 06:26:32;;;;;;;22.80;13.30;;;7.00;99.90;;;;;;4980590;28;20494;-75
2020/12/18 06:29:06;;;;;;;17.73;12.03;;;7.00;99.90;;;;;;4980949;28;20466;-74
2020/12/18 06:31:34;;;;;;;21.13;12.23;;;6.90;99.90;;;;;;4980440;28;20478;-74
2020/12/18 06:34:02;;;;;;;22.87;12.60;;;6.90;99.90;;;;;;4980007;28;20566;-75
2020/12/18 06:36:54;;;;;;;17.50;11.67;;;6.80;99.90;;;;;;4980782;28;20601;-75
2020/12/18 06:39:23;;;;;;;18.10;12.40;;;6.80;99.90;;;;;;4980790;28;20832;-74
2020/12/18 06:42:08;;;;;;;23.33;12.70;;;6.70;99.90;;;;;;4980618;28;20454;-74
2020/12/18 06:44:36;;;;;;;23.43;12.17;;;6.70;99.90;;;;;;4980249;28;20488;-76
2020/12/18 06:47:12;;;;;;;22.13;13.63;;;6.60;99.90;;;;;;4980345;28;20526;-77
2020/12/18 06:49:58;;;;;;;20.80;12.57;;;6.60;99.90;;;;;;4979834;28;20925;-75
2020/12/18 06:52:42;;;;;;;21.10;13.43;;;6.50;99.90;;;;;;4979481;28;20462;-75
2020/12/18 06:55:11;;;;;;;19.07;12.80;;;6.50;99.90;;;;;;4979894;28;20855;-78
2020/12/18 06:57:38;;;;;;;21.33;13.17;;;6.40;99.90;;;;;;4980499;28;20486;-76
2020/12/18 07:00:27;;;;;;;21.73;15.70;;;6.40;99.90;;;;;;4983947;28;20458;-76
2020/12/18 07:02:53;;;;;;;21.60;12.60;;;6.30;99.90;;;;;;4980099;28;20463;-75
2020/12/18 07:05:35;;;;;;;19.40;12.37;;;6.30;99.90;;;;;;4979467;28;20537;-75
2020/12/18 07:08:04;;;;;;;20.70;12.60;;;6.30;99.90;;;;;;4979499;28;20927;-74
2020/12/18 07:10:36;;;;;;;22.07;12.67;;;6.30;99.90;;;;;;4980014;28;20553;-73
2020/12/18 07:13:03;;;;;;;23.13;13.80;;;6.20;99.90;;;;;;4979968;28;20542;-73
2020/12/18 07:15:53;;;;;;;23.10;11.87;;;6.20;99.90;;;;;;4977575;28;20457;-74
2020/12/18 07:18:21;;;;;;;18.37;12.30;;;6.20;99.90;;;;;;4979594;28;20464;-74
2020/12/18 07:20:50;;;;;;;17.93;12.40;;;6.20;99.90;;;;;;4979929;28;20529;-75
2020/12/18 07:23:20;;;;;;;23.77;15.40;;;6.10;99.90;;;;;;4980625;28;20447;-74
2020/12/18 07:25:47;;;;;;;31.00;15.93;;;6.10;99.90;;;;;;4978689;28;20533;-74
2020/12/18 07:28:15;;;;;;;17.33;12.90;;;6.10;99.90;;;;;;4979772;28;20482;-73
2020/12/18 07:30:43;;;;;;;20.10;13.77;;;6.00;99.90;;;;;;4979301;28;20483;-73
2020/12/18 07:33:11;;;;;;;20.20;15.13;;;6.00;99.90;;;;;;4981204;28;20520;-74
2020/12/18 07:35:43;;;;;;;20.00;12.80;;;6.00;99.90;;;;;;4981147;28;20442;-74
2020/12/18 07:38:15;;;;;;;29.77;15.83;;;6.00;99.90;;;;;;4980194;28;20465;-76
2020/12/18 07:40:41;;;;;;;21.40;13.43;;;6.00;99.90;;;;;;4980360;28;20463;-75
2020/12/18 07:43:10;;;;;;;25.63;14.10;;;6.00;99.90;;;;;;4979677;28;20538;-76
2020/12/18 07:45:41;;;;;;;24.93;16.90;;;5.90;99.90;;;;;;4979407;28;20494;-75
2020/12/18 07:48:12;;;;;;;21.57;14.90;;;5.90;99.90;;;;;;4979849;28;20525;-75
2020/12/18 07:50:39;;;;;;;24.30;14.67;;;5.90;99.90;;;;;;4980367;28;20530;-75
2020/12/18 07:53:09;;;;;;;25.23;15.93;;;5.90;99.90;;;;;;4980425;28;20451;-75
2020/12/18 07:55:36;;;;;;;26.27;15.07;;;5.90;99.90;;;;;;4979170;28;20534;-75
2020/12/18 07:58:03;;;;;;;20.90;13.43;;;5.90;99.90;;;;;;4979228;28;20478;-76
2020/12/18 08:00:31;;;;;;;22.60;13.83;;;5.90;99.90;;;;;;4980094;28;20470;-76
2020/12/18 08:02:58;;;;;;;29.67;16.63;;;5.90;99.90;;;;;;4978583;28;20470;-76
2020/12/18 08:05:24;;;;;;;21.63;13.27;;;5.90;99.90;;;;;;4979700;28;20517;-75
2020/12/18 08:07:58;;;;;;;24.27;15.30;;;5.90;99.90;;;;;;4984202;28;20443;-75
2020/12/18 08:10:24;;;;;;;22.90;13.27;;;5.90;99.90;;;;;;4980706;28;20443;-77
2020/12/18 08:12:51;;;;;;;26.00;15.00;;;5.90;99.90;;;;;;4980352;28;20462;-76
2020/12/18 08:15:17;;;;;;;23.03;14.57;;;5.90;99.90;;;;;;4981061;28;20486;-74
2020/12/18 08:17:45;;;;;;;23.93;13.47;;;5.90;99.90;;;;;;4980589;28;20494;-75
2020/12/18 08:20:14;;;;;;;18.17;13.03;;;5.90;99.90;;;;;;4981990;28;20900;-75
2020/12/18 08:22:44;;;;;;;20.40;14.20;;;6.00;99.90;;;;;;4981058;28;20466;-75
2020/12/18 08:25:12;;;;;;;28.10;14.20;;;6.00;99.90;;;;;;4980409;28;20549;-75
2020/12/18 08:27:46;;;;;;;22.53;14.60;;;6.00;99.90;;;;;;4988383;28;20545;-74
2020/12/18 08:30:15;;;;;;;24.53;14.97;;;6.00;99.90;;;;;;5005978;28;20475;-74
2020/12/18 08:32:47;;;;;;;22.10;13.17;;;6.00;99.90;;;;;;5009999;28;20507;-75
2020/12/18 08:35:20;;;;;;;23.30;13.80;;;5.90;99.90;;;;;;5008948;28;20516;-75
2020/12/18 08:37:48;;;;;;;19.03;12.33;;;5.90;99.90;;;;;;5004840;28;20561;-74
2020/12/18 08:40:22;;;;;;;24.50;15.13;;;5.90;99.90;;;;;;5001715;28;20536;-74
2020/12/18 08:42:59;;;;;;;23.87;15.40;;;5.90;99.90;;;;;;4998138;28;20453;-74
2020/12/18 08:45:26;;;;;;;22.13;15.20;;;5.90;99.90;;;;;;4996818;28;20570;-75
2020/12/18 08:47:53;;;;;;;23.50;15.20;;;6.00;99.90;;;;;;4996453;28;20577;-75
2020/12/18 08:50:20;;;;;;;21.80;13.53;;;6.00;99.90;;;;;;5002526;28;20532;-75
2020/12/18 08:52:47;;;;;;;21.03;12.27;;;6.00;99.90;;;;;;5004480;28;20460;-75
2020/12/18 08:55:15;;;;;;;25.20;15.40;;;6.00;99.90;;;;;;5003532;28;20458;-75
2020/12/18 08:57:42;;;;;;;25.93;15.50;;;6.00;99.90;;;;;;4997534;28;20837;-75
2020/12/18 09:00:13;;;;;;;22.37;14.50;;;6.10;99.90;;;;;;5009954;28;20449;-73
2020/12/18 09:02:42;;;;;;;20.60;13.97;;;6.10;99.90;;;;;;5009416;28;20936;-75
2020/12/18 09:05:17;;;;;;;21.97;13.80;;;6.20;99.90;;;;;;5002490;28;20486;-74
2020/12/18 09:07:47;;;;;;;20.20;15.23;;;6.20;99.90;;;;;;4995635;28;20477;-75
2020/12/18 09:10:14;;;;;;;23.10;13.80;;;6.30;99.90;;;;;;4997695;28;20915;-75
2020/12/18 09:12:42;;;;;;;18.33;13.03;;;6.30;99.90;;;;;;5009867;28;20477;-75
2020/12/18 09:15:22;;;;;;;18.83;12.00;;;6.30;99.90;;;;;;5002576;28;20499;-74
2020/12/18 09:17:59;;;;;;;22.20;13.40;;;6.40;99.90;;;;;;5005836;28;20835;-74
2020/12/18 09:20:27;;;;;;;24.43;12.17;;;6.40;99.90;;;;;;5007729;28;20766;-75
2020/12/18 09:23:03;;;;;;;32.30;13.97;;;6.50;99.90;;;;;;5010971;28;20914;-74
2020/12/18 09:25:34;;;;;;;23.73;11.87;;;6.60;99.90;;;;;;4998115;28;20515;-74
2020/12/18 09:28:02;;;;;;;17.73;12.30;;;6.70;99.90;;;;;;5002681;28;20496;-74
2020/12/18 09:30:30;;;;;;;24.67;13.13;;;6.80;99.90;;;;;;5008242;28;20532;-74
2020/12/18 09:33:25;;;;;;;23.50;12.77;;;7.00;99.90;;;;;;5001497;28;20953;-74
2020/12/18 09:35:57;;;;;;;20.97;11.90;;;7.10;99.90;;;;;;4993719;28;20438;-74
2020/12/18 09:38:27;;;;;;;22.40;13.77;;;7.20;99.90;;;;;;5015244;28;20943;-79
2020/12/18 09:40:55;;;;;;;25.30;12.70;;;7.40;99.90;;;;;;5015197;28;20498;-78
2020/12/18 09:43:21;;;;;;;17.63;12.50;;;7.50;99.90;;;;;;4988753;28;20947;-77
2020/12/18 09:45:48;;;;;;;18.67;13.30;;;7.70;99.90;;;;;;4976114;28;20574;-79
2020/12/18 09:48:15;;;;;;;20.13;12.73;;;7.90;99.90;;;;;;4977112;28;20502;-78
2020/12/18 09:50:41;;;;;;;28.03;13.70;;;8.00;99.90;;;;;;4981842;28;20458;-79
2020/12/18 09:53:09;;;;;;;19.50;10.87;;;8.10;99.90;;;;;;4990646;28;20831;-79
2020/12/18 09:55:35;;;;;;;17.50;10.73;;;8.20;99.90;;;;;;4993751;28;20502;-76
2020/12/18 09:58:03;;;;;;;18.83;11.20;;;8.40;99.90;;;;;;4989533;28;20446;-78
2020/12/18 10:00:30;;;;;;;32.63;16.40;;;8.50;99.90;;;;;;4990918;28;20783;-79
2020/12/18 10:02:56;;;;;;;19.07;12.70;;;8.70;99.90;;;;;;4988368;28;20445;-78
2020/12/18 10:05:24;;;;;;;17.80;11.27;;;8.90;99.90;;;;;;4989031;28;20485;-78
2020/12/18 10:07:50;;;;;;;21.43;12.03;;;9.10;99.90;;;;;;4989493;28;20485;-76
2020/12/18 10:10:18;;;;;;;17.93;12.00;;;9.30;99.90;;;;;;4997979;28;20482;-76
2020/12/18 10:12:47;;;;;;;18.30;12.57;;;9.50;99.90;;;;;;5000382;28;20520;-75
2020/12/18 10:15:14;;;;;;;15.90;10.63;;;9.70;99.90;;;;;;4987625;28;20487;-77
2020/12/18 10:17:40;;;;;;;15.40;11.43;;;9.70;99.90;;;;;;4979383;28;20490;-78
2020/12/18 10:20:07;;;;;;;20.33;11.83;;;9.70;99.90;;;;;;4979176;28;20454;-78
2020/12/18 10:22:33;;;;;;;15.93;10.30;;;9.70;99.90;;;;;;4979454;28;20541;-79
2020/12/18 10:25:00;;;;;;;17.70;12.40;;;9.70;99.90;;;;;;4991901;28;20461;-78
2020/12/18 10:27:27;;;;;;;15.57;10.20;;;9.70;99.90;;;;;;4980586;28;20514;-75
2020/12/18 10:29:56;;;;;;;14.87;11.67;;;9.70;99.90;;;;;;4983496;28;20451;-68
2020/12/18 10:32:26;;;;;;;16.87;11.03;;;9.70;99.90;;;;;;5002434;28;20441;-69
2020/12/18 10:34:52;;;;;;;19.00;12.10;;;9.50;99.90;;;;;;5011370;28;20907;-69
2020/12/18 10:37:19;;;;;;;17.90;12.17;;;9.30;99.90;;;;;;5011811;28;20514;-69
2020/12/18 10:39:45;;;;;;;17.93;11.47;;;9.20;99.90;;;;;;4997706;28;20488;-75
2020/12/18 10:42:13;;;;;;;25.17;11.10;;;9.20;99.90;;;;;;5005942;28;20862;-76
2020/12/18 10:44:41;;;;;;;17.07;11.73;;;9.10;99.90;;;;;;4996058;28;20459;-68
2020/12/18 10:47:07;;;;;;;18.47;11.23;;;9.00;99.90;;;;;;5012543;28;20834;-72
2020/12/18 10:49:34;;;;;;;29.83;15.70;;;9.00;99.90;;;;;;5011670;28;20491;-69
2020/12/18 10:52:01;;;;;;;17.70;10.90;;;9.00;99.90;;;;;;5004291;28;20542;-67
2020/12/18 10:54:28;;;;;;;21.80;12.97;;;9.00;99.90;;;;;;5006395;28;20997;-69
2020/12/18 10:56:55;;;;;;;16.20;12.93;;;9.00;99.90;;;;;;5008468;28;20588;-70
2020/12/18 10:59:22;;;;;;;15.57;10.13;;;9.00;99.90;;;;;;5007863;28;20537;-70
2020/12/18 11:01:53;;;;;;;17.73;12.00;;;9.00;99.90;;;;;;5012382;28;20473;-69
2020/12/18 11:04:19;;;;;;;14.73;10.30;;;9.00;99.90;;;;;;5001206;28;20840;-71
2020/12/18 11:06:46;;;;;;;18.40;10.30;;;9.10;99.90;;;;;;5008667;28;20549;-68
2020/12/18 11:09:12;;;;;;;15.50;10.03;;;9.20;99.90;;;;;;5016909;28;20933;-70
2020/12/18 11:11:39;;;;;;;17.50;10.80;;;9.20;99.90;;;;;;4998178;28;20957;-74
2020/12/18 11:14:08;;;;;;;13.93;9.80;;;9.20;99.90;;;;;;5001786;28;20541;-71
2020/12/18 11:16:35;;;;;;;11.97;9.73;;;9.20;99.90;;;;;;4992358;28;20446;-71
2020/12/18 11:19:02;;;;;;;13.57;9.53;;;9.30;99.90;;;;;;5003576;28;20537;-71
2020/12/18 11:21:29;;;;;;;18.03;9.63;;;9.30;99.90;;;;;;5004136;28;20508;-72
2020/12/18 11:23:56;;;;;;;10.77;8.60;;;9.40;99.90;;;;;;5009759;28;20448;-72
2020/12/18 11:26:23;;;;;;;13.83;8.53;;;9.40;99.90;;;;;;4991007;28;20589;-74
2020/12/18 11:28:49;;;;;;;10.40;8.83;;;9.50;99.90;;;;;;5002505;28;20454;-73
2020/12/18 11:31:16;;;;;;;11.83;9.00;;;9.50;99.90;;;;;;5001009;28;20504;-76
2020/12/18 11:33:43;;;;;;;14.00;9.17;;;9.50;99.90;;;;;;5007078;28;20458;-70
2020/12/18 11:36:10;;;;;;;10.97;7.80;;;9.60;99.90;;;;;;5005774;28;20535;-74
2020/12/18 11:38:37;;;;;;;17.93;8.80;;;9.70;99.90;;;;;;5015060;28;20846;-70
2020/12/18 11:41:04;;;;;;;12.57;7.73;;;9.70;99.90;;;;;;5003215;28;20456;-68
2020/12/18 11:43:31;;;;;;;17.80;8.60;;;9.70;99.90;;;;;;5008681;28;20487;-70
2020/12/18 11:45:59;;;;;;;11.70;8.80;;;9.80;99.90;;;;;;5011229;28;20492;-75
2020/12/18 11:48:26;;;;;;;17.20;9.07;;;9.80;99.90;;;;;;5010384;28;20468;-77
2020/12/18 11:50:53;;;;;;;15.87;9.80;;;9.80;99.90;;;;;;5003245;28;20477;-72
2020/12/18 11:53:20;;;;;;;16.30;9.00;;;9.80;99.90;;;;;;5006932;28;20455;-71
2020/12/18 11:55:46;;;;;;;15.20;9.73;;;9.80;99.90;;;;;;5002921;28;20493;-69
2020/12/18 11:58:13;;;;;;;16.93;10.60;;;9.80;99.90;;;;;;5005620;28;20524;-70
2020/12/18 12:00:39;;;;;;;15.57;9.60;;;9.90;99.90;;;;;;5003163;28;20533;-70
2020/12/18 12:03:05;;;;;;;17.10;8.90;;;10.10;99.90;;;;;;5006986;28;20487;-70
2020/12/18 12:05:35;;;;;;;19.23;9.43;;;10.10;99.90;;;;;;5015184;28;20551;-71
2020/12/18 12:08:01;;;;;;;15.27;9.70;;;10.10;99.90;;;;;;4995047;28;20486;-70
2020/12/18 12:10:30;;;;;;;15.80;9.50;;;10.10;99.90;;;;;;5000318;28;20470;-71
2020/12/18 12:12:57;;;;;;;11.87;7.80;;;10.10;99.90;;;;;;5013480;28;20484;-69
2020/12/18 12:15:23;;;;;;;15.40;9.80;;;10.20;99.90;;;;;;5011485;28;20456;-69
2020/12/18 12:17:51;;;;;;;16.07;10.07;;;10.20;99.90;;;;;;4986390;28;20455;-76
2020/12/18 12:20:17;;;;;;;17.67;8.60;;;10.20;99.90;;;;;;5000630;28;20542;-70
2020/12/18 12:22:44;;;;;;;9.50;7.60;;;10.20;99.90;;;;;;4999835;28;20987;-70
2020/12/18 12:25:10;;;;;;;13.90;8.67;;;10.20;99.90;;;;;;5006618;28;20545;-77
2020/12/18 12:27:37;;;;;;;9.80;7.80;;;10.20;99.90;;;;;;5002784;28;20579;-74
2020/12/18 12:30:04;;;;;;;13.67;8.00;;;10.30;99.90;;;;;;5009131;28;20445;-76
2020/12/18 12:32:30;;;;;;;10.87;7.17;;;10.30;99.90;;;;;;5000627;28;20875;-73
2020/12/18 12:34:57;;;;;;;15.30;8.40;;;10.50;99.90;;;;;;5006041;28;20533;-72
2020/12/18 12:37:23;;;;;;;9.00;7.40;;;10.60;99.90;;;;;;5010791;28;20472;-72
2020/12/18 12:39:50;;;;;;;13.17;8.30;;;10.70;99.90;;;;;;5012734;28;20496;-71
2020/12/18 12:42:17;;;;;;;14.43;8.33;;;10.60;99.90;;;;;;5003537;28;20553;-70